Sosnowiec, Poland
Current Conditions -  °F | °C
As of 2:00 PM on Thursday 30 Oct 2014 (Local Time) from EPKT Reporting Station
Few Clouds Few Clouds  
Wind Chill: 45°   Ceiling: Unl
Heat Index: 48°   Visibility: 6mi
Dew Point: 37°   Wind: 8mph
Humidity: 66%   Direction: 250°WSW
Pressure: 30.24"   Gusts: NA
Location:  50.28°N, 19.12°E
Report Text: EPKT 301200Z 25007KT 9999 FEW023 09/03 Q1024
Loading
Personal Weather Stations






























Interactive Weather Map
Tropical Storm Tracking
New forecast layout! Learn more

10-Day Weather Forecast

Advertisements
Track Severe Weather on mobile